createdAt,value
2022-10-15T00:00:18.416Z,15.41
2022-10-15T00:03:19.943Z,15.42
2022-10-15T00:06:21.649Z,15.41
2022-10-15T00:09:23.058Z,15.43
2022-10-15T00:12:24.529Z,15.43
2022-10-15T00:15:26.029Z,15.46
2022-10-15T00:18:27.775Z,15.45
2022-10-15T00:21:29.587Z,15.45
2022-10-15T00:24:31.013Z,15.47
2022-10-15T00:27:33.852Z,15.50
2022-10-15T00:30:35.337Z,15.51
2022-10-15T00:33:37.950Z,15.52
2022-10-15T00:36:39.350Z,15.56
2022-10-15T00:39:40.730Z,15.56
2022-10-15T00:42:42.270Z,15.58
2022-10-15T00:45:43.748Z,15.62
2022-10-15T00:48:49.687Z,15.67
2022-10-15T00:52:09.847Z,15.68
2022-10-15T00:55:18.590Z,15.70
2022-10-15T00:58:27.698Z,15.82
2022-10-15T01:01:30.218Z,15.86
2022-10-15T01:04:32.078Z,15.89
2022-10-15T01:07:33.598Z,15.87
2022-10-15T01:10:48.808Z,15.88
2022-10-15T01:14:11.466Z,15.90
2022-10-15T01:17:26.544Z,16.07
2022-10-15T01:21:00.553Z,16.06
2022-10-15T01:24:41.407Z,16.21
2022-10-15T01:27:56.287Z,16.16
2022-10-15T01:31:50.294Z,16.20
2022-10-15T01:35:20.185Z,16.15
2022-10-15T01:38:24.564Z,16.20
2022-10-15T01:41:50.272Z,16.19
2022-10-15T01:45:00.632Z,16.25
2022-10-15T01:48:09.489Z,16.20
2022-10-15T01:51:15.269Z,16.10
2022-10-15T01:54:19.147Z,16.20
2022-10-15T01:57:25.027Z,16.22
2022-10-15T02:00:27.158Z,16.37
2022-10-15T02:03:28.641Z,16.30
2022-10-15T02:06:42.331Z,16.26
2022-10-15T02:10:02.777Z,16.32
2022-10-15T02:13:31.828Z,16.38
2022-10-15T02:16:40.756Z,16.41
2022-10-15T02:19:52.515Z,16.37
2022-10-15T02:22:56.859Z,16.41
2022-10-15T02:25:58.620Z,16.47
2022-10-15T02:29:02.107Z,16.47
2022-10-15T02:32:07.148Z,16.43
2022-10-15T02:35:10.473Z,16.44
2022-10-15T02:38:18.726Z,16.41
2022-10-15T02:41:20.509Z,16.47
2022-10-15T02:44:22.388Z,16.43
2022-10-15T02:50:30.228Z,16.38
2022-10-15T02:53:32.289Z,16.40
2022-10-15T02:56:34.728Z,16.42
2022-10-15T02:59:36.798Z,16.48
2022-10-15T03:02:38.226Z,16.45
2022-10-15T03:05:40.201Z,16.49
2022-10-15T03:08:42.672Z,16.53
2022-10-15T03:11:44.805Z,16.57
2022-10-15T03:14:46.279Z,16.54
2022-10-15T03:17:49.122Z,16.55
2022-10-15T03:20:56.267Z,16.54
2022-10-15T03:23:59.039Z,16.55
2022-10-15T03:27:01.361Z,16.62
2022-10-15T03:30:04.981Z,16.59
2022-10-15T03:33:08.532Z,16.64
2022-10-15T03:36:10.604Z,16.61
2022-10-15T03:39:12.820Z,16.60
2022-10-15T03:42:14.846Z,16.57
2022-10-15T03:45:23.574Z,16.57
2022-10-15T03:48:34.428Z,16.56
2022-10-15T03:51:36.411Z,16.52
2022-10-15T03:54:43.349Z,16.73
2022-10-15T03:57:45.878Z,16.61
2022-10-15T04:00:47.479Z,16.63
2022-10-15T04:03:53.093Z,16.64
2022-10-15T04:06:56.539Z,16.67
2022-10-15T04:09:59.149Z,16.61
2022-10-15T04:13:06.271Z,16.55
2022-10-15T04:16:09.248Z,16.62
2022-10-15T04:19:11.336Z,16.64
2022-10-15T04:22:14.105Z,16.70
2022-10-15T04:25:21.506Z,16.62
2022-10-15T04:28:22.958Z,16.68
2022-10-15T04:31:24.838Z,16.65
2022-10-15T04:34:27.122Z,16.74
2022-10-15T04:37:28.661Z,16.72
2022-10-15T04:40:30.238Z,16.66
2022-10-15T04:43:32.098Z,16.67
2022-10-15T04:46:38.044Z,16.71
2022-10-15T04:49:56.077Z,16.73
2022-10-15T04:53:15.891Z,16.74
2022-10-15T04:56:21.043Z,16.73
2022-10-15T04:59:22.550Z,16.70
2022-10-15T05:02:52.814Z,16.66
2022-10-15T05:06:09.826Z,16.66
2022-10-15T05:09:13.298Z,16.63
2022-10-15T05:12:18.840Z,16.68
2022-10-15T05:15:20.729Z,16.62
2022-10-15T05:18:22.238Z,16.69
2022-10-15T05:21:27.574Z,16.75
2022-10-15T05:24:32.093Z,16.75
2022-10-15T05:27:38.220Z,16.69
2022-10-15T05:30:40.415Z,16.63
2022-10-15T05:33:42.075Z,16.62
2022-10-15T05:36:43.821Z,16.54
2022-10-15T05:39:45.236Z,16.60
2022-10-15T05:42:51.489Z,16.62
2022-10-15T05:45:57.014Z,16.63
2022-10-15T05:48:58.616Z,16.59
2022-10-15T05:52:01.396Z,16.68
2022-10-15T05:55:31.776Z,16.62
2022-10-15T05:58:37.217Z,16.66
2022-10-15T06:01:39.368Z,16.60
2022-10-15T06:04:40.753Z,16.58
2022-10-15T06:07:42.166Z,16.57
2022-10-15T06:10:44.239Z,16.53
2022-10-15T06:13:46.506Z,16.55
2022-10-15T06:16:50.605Z,16.57
2022-10-15T06:19:52.008Z,16.54
2022-10-15T06:23:00.129Z,16.56
2022-10-15T06:26:04.040Z,16.57
2022-10-15T06:29:05.509Z,16.60
2022-10-15T06:32:11.033Z,16.60
2022-10-15T06:35:20.273Z,16.57
2022-10-15T06:38:21.857Z,16.54
2022-10-15T06:41:23.444Z,16.53
2022-10-15T06:44:24.948Z,16.47
2022-10-15T06:47:26.557Z,16.51
2022-10-15T06:50:28.174Z,16.52
2022-10-15T06:53:31.182Z,16.61
2022-10-15T06:56:32.667Z,16.51
2022-10-15T06:59:35.792Z,16.49
2022-10-15T07:02:38.548Z,16.46
2022-10-15T07:05:40.071Z,16.50
2022-10-15T07:08:41.473Z,16.52
2022-10-15T07:11:42.913Z,16.50
2022-10-15T07:14:44.285Z,16.53
2022-10-15T07:17:50.657Z,16.59
2022-10-15T07:20:52.052Z,16.54
2022-10-15T07:23:53.531Z,16.58
2022-10-15T07:26:55.000Z,16.55
2022-10-15T07:29:56.400Z,16.57
2022-10-15T07:32:59.482Z,16.51
2022-10-15T07:36:08.712Z,16.46
2022-10-15T07:39:10.512Z,16.50
2022-10-15T07:45:14.411Z,16.49
2022-10-15T07:48:16.631Z,16.50
2022-10-15T07:54:24.785Z,16.49
2022-10-15T07:57:26.246Z,16.47
2022-10-15T08:00:28.059Z,16.48
2022-10-15T08:03:30.514Z,16.57
2022-10-15T08:06:32.722Z,16.44
2022-10-15T08:09:34.233Z,16.46
2022-10-15T08:12:36.356Z,16.49
2022-10-15T08:15:42.326Z,16.50
2022-10-15T08:18:44.691Z,16.52
2022-10-15T08:21:47.498Z,16.49
2022-10-15T08:24:49.114Z,16.50
2022-10-15T08:27:52.796Z,16.53
2022-10-15T08:30:55.502Z,16.56
2022-10-15T08:33:59.988Z,16.56
2022-10-15T08:37:02.859Z,16.50
2022-10-15T08:40:05.312Z,16.47
2022-10-15T08:43:06.991Z,16.44
2022-10-15T08:46:23.780Z,16.48
2022-10-15T08:49:50.612Z,16.62
2022-10-15T08:52:54.263Z,16.59
2022-10-15T08:56:00.918Z,16.69
2022-10-15T08:59:21.026Z,16.72
2022-10-15T09:02:44.813Z,16.72
2022-10-15T09:05:49.212Z,16.69
2022-10-15T09:09:02.202Z,16.70
2022-10-15T09:12:15.537Z,16.74
2022-10-15T09:15:24.102Z,16.70
2022-10-15T09:18:34.144Z,16.72
2022-10-15T09:21:35.998Z,16.71
2022-10-15T09:24:37.421Z,16.72
2022-10-15T09:27:39.726Z,16.79
2022-10-15T09:30:55.105Z,16.79
2022-10-15T09:34:12.799Z,16.81
2022-10-15T09:37:25.727Z,16.73
2022-10-15T09:41:16.414Z,16.70
2022-10-15T09:44:21.290Z,16.72
2022-10-15T09:47:26.380Z,16.77
2022-10-15T09:50:45.204Z,16.85
2022-10-15T09:53:59.586Z,16.86
2022-10-15T09:57:01.521Z,16.97
2022-10-15T10:00:08.468Z,17.00
2022-10-15T10:03:15.786Z,17.10
2022-10-15T10:06:17.391Z,17.14
2022-10-15T10:09:23.442Z,17.16
2022-10-15T10:12:32.224Z,17.24
2022-10-15T10:15:41.825Z,17.29
2022-10-15T10:18:50.386Z,17.25
2022-10-15T10:22:06.972Z,17.23
2022-10-15T10:25:26.704Z,17.24
2022-10-15T10:28:34.136Z,17.30
2022-10-15T10:31:42.424Z,17.32
2022-10-15T10:34:50.170Z,17.38
2022-10-15T10:37:54.416Z,17.46
2022-10-15T10:41:00.342Z,17.53
2022-10-15T10:44:01.741Z,17.67
2022-10-15T10:47:20.028Z,17.86
2022-10-15T10:50:32.624Z,17.98
2022-10-15T10:53:47.976Z,18.07
2022-10-15T10:56:49.495Z,18.18
2022-10-15T10:59:56.204Z,18.06
2022-10-15T11:02:57.689Z,17.97
2022-10-15T11:06:25.899Z,18.00
2022-10-15T11:09:56.251Z,17.97
2022-10-15T11:13:13.793Z,17.94
2022-10-15T11:16:33.622Z,17.99
2022-10-15T11:20:13.156Z,17.85
2022-10-15T11:23:35.578Z,17.81
2022-10-15T11:26:59.639Z,17.87
2022-10-15T11:30:36.050Z,17.93
2022-10-15T11:34:07.260Z,17.92
2022-10-15T11:37:15.943Z,17.90
2022-10-15T11:40:45.838Z,17.93
2022-10-15T11:44:03.006Z,18.05
2022-10-15T11:47:16.810Z,18.04
2022-10-15T11:50:40.167Z,17.89
2022-10-15T11:54:04.572Z,17.83
2022-10-15T11:57:10.669Z,17.89
2022-10-15T12:00:11.995Z,17.87
2022-10-15T12:03:27.813Z,17.94
2022-10-15T12:06:37.357Z,17.92
2022-10-15T12:09:44.398Z,17.95
2022-10-15T12:13:05.363Z,18.01
2022-10-15T12:16:12.978Z,18.00
2022-10-15T12:19:20.259Z,17.96
2022-10-15T12:22:40.076Z,17.89
2022-10-15T12:25:45.117Z,17.85
2022-10-15T12:28:48.735Z,17.88
2022-10-15T12:31:53.619Z,17.84
2022-10-15T12:35:04.272Z,17.85
2022-10-15T12:38:25.140Z,17.93
2022-10-15T12:41:47.802Z,17.92
2022-10-15T12:44:50.116Z,17.81
2022-10-15T12:48:06.554Z,17.86
2022-10-15T12:51:35.225Z,17.77
2022-10-15T12:54:41.747Z,17.78
2022-10-15T12:57:45.973Z,17.82
2022-10-15T13:00:47.451Z,17.93
2022-10-15T13:03:49.067Z,18.00
2022-10-15T13:06:51.175Z,17.91
2022-10-15T13:09:52.992Z,17.89
2022-10-15T13:13:03.762Z,17.85
2022-10-15T13:16:09.348Z,17.77
2022-10-15T13:19:25.124Z,17.67
2022-10-15T13:22:30.139Z,17.67
2022-10-15T13:25:32.210Z,17.72
2022-10-15T13:28:37.996Z,17.68
2022-10-15T13:31:44.826Z,17.66
2022-10-15T13:34:46.286Z,17.64
2022-10-15T13:37:48.454Z,17.61
2022-10-15T13:40:52.080Z,17.62
2022-10-15T13:43:58.530Z,17.63
2022-10-15T13:47:00.006Z,17.71
2022-10-15T13:50:18.761Z,17.65
2022-10-15T13:53:40.117Z,17.62
2022-10-15T13:57:00.085Z,17.64
2022-10-15T14:00:01.794Z,17.65
2022-10-15T14:03:15.993Z,17.67
2022-10-15T14:06:32.321Z,17.68
2022-10-15T14:09:37.132Z,17.72
2022-10-15T14:12:38.566Z,17.62
2022-10-15T14:15:44.384Z,17.57
2022-10-15T14:18:49.631Z,17.51
2022-10-15T14:21:52.310Z,17.55
2022-10-15T14:24:55.738Z,17.63
2022-10-15T14:27:57.232Z,17.58
2022-10-15T14:31:00.308Z,17.59
2022-10-15T14:34:02.067Z,17.58
2022-10-15T14:37:35.293Z,17.48
2022-10-15T14:40:37.034Z,17.45
2022-10-15T14:43:38.510Z,17.38
2022-10-15T14:46:43.566Z,17.37
2022-10-15T14:49:45.658Z,17.28
2022-10-15T14:52:50.334Z,17.27
2022-10-15T14:55:56.653Z,17.17
2022-10-15T14:58:58.601Z,17.16
2022-10-15T15:02:03.139Z,17.09
2022-10-15T15:05:10.611Z,17.02
2022-10-15T15:08:12.771Z,16.99
2022-10-15T15:11:19.221Z,17.02
2022-10-15T15:14:25.507Z,17.04
2022-10-15T15:17:28.876Z,17.03
2022-10-15T15:20:30.386Z,17.12
2022-10-15T15:23:32.659Z,17.04
2022-10-15T15:26:34.060Z,17.04
2022-10-15T15:29:35.443Z,17.07
2022-10-15T15:32:36.838Z,17.06
2022-10-15T15:35:51.847Z,17.02
2022-10-15T15:38:58.484Z,16.96
2022-10-15T15:41:59.986Z,16.87
2022-10-15T15:45:01.393Z,16.87
2022-10-15T15:48:03.613Z,16.86
2022-10-15T15:51:20.971Z,16.87
2022-10-15T15:54:22.381Z,16.85
2022-10-15T15:57:24.176Z,16.86
2022-10-15T16:00:25.731Z,16.89
2022-10-15T16:03:27.111Z,16.86
2022-10-15T16:06:28.567Z,16.89
2022-10-15T16:09:29.954Z,16.82
2022-10-15T16:12:33.863Z,16.86
2022-10-15T16:15:35.258Z,16.92
2022-10-15T16:18:37.691Z,16.97
2022-10-15T16:21:39.078Z,16.91
2022-10-15T16:24:40.866Z,16.90
2022-10-15T16:27:45.414Z,16.83
2022-10-15T16:30:46.806Z,16.78
2022-10-15T16:33:48.686Z,16.84
2022-10-15T16:36:50.415Z,16.83
2022-10-15T16:39:51.812Z,16.74
2022-10-15T16:42:53.251Z,16.66
2022-10-15T16:45:58.514Z,16.67
2022-10-15T16:49:00.009Z,16.65
2022-10-15T16:52:01.386Z,16.62
2022-10-15T16:55:03.498Z,16.66
2022-10-15T16:58:04.876Z,16.63
2022-10-15T17:01:10.929Z,16.59
2022-10-15T17:04:12.574Z,16.58
2022-10-15T17:07:14.122Z,16.56
2022-10-15T17:10:15.709Z,16.57
2022-10-15T17:14:04.059Z,16.50
2022-10-15T17:17:41.863Z,16.49
2022-10-15T17:21:48.560Z,16.52
2022-10-15T17:43:26.584Z,16.55
2022-10-15T17:46:29.202Z,16.63
2022-10-15T17:49:30.586Z,16.64
2022-10-15T17:52:32.498Z,16.65
2022-10-15T17:55:33.923Z,16.67
2022-10-15T17:58:35.434Z,16.71
2022-10-15T18:01:57.323Z,16.72
2022-10-15T18:05:00.748Z,16.68
2022-10-15T18:08:04.033Z,16.68
2022-10-15T18:11:06.473Z,16.68
2022-10-15T18:14:08.481Z,16.66
2022-10-15T18:17:10.900Z,16.67
2022-10-15T18:20:13.470Z,16.71
2022-10-15T18:23:15.902Z,16.67
2022-10-15T18:26:20.708Z,16.72
2022-10-15T18:29:22.574Z,16.73
2022-10-15T18:32:24.256Z,16.70
2022-10-15T18:35:25.748Z,16.71
2022-10-15T18:38:27.135Z,16.69
2022-10-15T18:41:33.352Z,16.73
2022-10-15T18:44:34.997Z,16.68
2022-10-15T18:47:36.377Z,16.69
2022-10-15T18:50:40.811Z,16.65
2022-10-15T18:53:42.295Z,16.68
2022-10-15T18:56:43.821Z,16.68
2022-10-15T18:59:47.333Z,16.69
2022-10-15T19:02:48.748Z,16.70
2022-10-15T19:05:51.073Z,16.71
2022-10-15T19:08:52.499Z,16.72
2022-10-15T19:11:55.310Z,16.73
2022-10-15T19:14:56.706Z,16.76
2022-10-15T19:17:58.339Z,16.74
2022-10-15T19:35:47.197Z,16.67
2022-10-15T19:48:02.573Z,16.69
2022-10-15T20:00:38.497Z,16.63
2022-10-15T20:16:22.282Z,16.62
2022-10-15T20:19:25.287Z,16.61
2022-10-15T20:22:26.957Z,16.60
2022-10-15T20:25:29.091Z,16.59
2022-10-15T20:28:30.955Z,16.59
2022-10-15T20:31:34.780Z,16.63
2022-10-15T20:34:36.320Z,16.69
2022-10-15T20:37:37.751Z,16.67
2022-10-15T20:40:39.998Z,16.70
2022-10-15T20:43:42.500Z,16.66
2022-10-15T20:46:48.775Z,16.70
2022-10-15T20:49:52.974Z,16.72
2022-10-15T20:52:56.294Z,16.71
2022-10-15T20:55:59.444Z,16.71
2022-10-15T20:59:04.234Z,16.73
2022-10-15T21:02:05.791Z,16.73
2022-10-15T21:05:07.535Z,16.71
2022-10-15T21:08:09.006Z,16.69
2022-10-15T21:11:10.453Z,16.71
2022-10-15T21:14:13.118Z,16.73
2022-10-15T21:17:14.761Z,16.70
2022-10-15T21:20:16.328Z,16.71
2022-10-15T21:23:18.134Z,16.73
2022-10-15T21:26:20.622Z,16.74
2022-10-15T21:29:23.645Z,16.75
2022-10-15T21:32:25.441Z,16.82
2022-10-15T21:35:26.946Z,16.84
2022-10-15T21:38:28.431Z,16.88
2022-10-15T21:41:31.862Z,16.89
2022-10-15T21:44:33.495Z,16.88
2022-10-15T21:47:34.943Z,16.92
2022-10-15T21:50:36.376Z,16.87
2022-10-15T21:53:38.123Z,16.76
2022-10-15T21:56:39.996Z,16.82
2022-10-15T21:59:41.746Z,16.88
2022-10-15T22:02:43.223Z,16.89
2022-10-15T22:05:44.678Z,16.91
2022-10-15T22:08:47.366Z,16.92
2022-10-15T22:11:48.830Z,16.88
2022-10-15T22:14:50.204Z,16.86
2022-10-15T22:17:51.689Z,16.90
2022-10-15T22:20:53.086Z,16.92
2022-10-15T22:23:55.908Z,16.93
2022-10-15T22:26:57.414Z,16.89
2022-10-15T22:29:58.795Z,16.88
2022-10-15T22:33:00.177Z,16.92
2022-10-15T22:36:03.298Z,16.93
2022-10-15T22:39:06.285Z,16.93
2022-10-15T22:42:07.743Z,16.92
2022-10-15T22:45:09.280Z,16.91
2022-10-15T22:48:10.747Z,16.92
2022-10-15T22:51:13.514Z,16.90
2022-10-15T22:54:16.875Z,16.92
2022-10-15T22:57:18.258Z,16.93
2022-10-15T23:00:20.086Z,16.90
2022-10-15T23:03:22.100Z,16.90
2022-10-15T23:06:25.073Z,16.85
2022-10-15T23:09:33.528Z,16.86
2022-10-15T23:12:39.038Z,16.89
2022-10-15T23:15:40.869Z,16.89
2022-10-15T23:18:46.279Z,16.89
2022-10-15T23:21:49.158Z,16.89
2022-10-15T23:29:42.407Z,16.81
2022-10-15T23:37:11.753Z,16.75
2022-10-15T23:49:05.744Z,16.71
2022-10-15T23:56:19.398Z,16.73
2022-10-15T23:59:23.220Z,16.73
